sensor_id;sensor_type;location;lat;lon;timestamp;P1;durP1;ratioP1;P2;durP2;ratioP2
75261;SDS011;63859;51.064;4.580;2023-04-24T00:01:41;23.63;;;12.73;;
75261;SDS011;63859;51.064;4.580;2023-04-24T00:04:07;27.33;;;13.17;;
75261;SDS011;63859;51.064;4.580;2023-04-24T00:06:36;24.00;;;14.30;;
75261;SDS011;63859;51.064;4.580;2023-04-24T00:09:02;28.50;;;14.33;;
75261;SDS011;63859;51.064;4.580;2023-04-24T00:11:29;24.23;;;13.07;;
75261;SDS011;63859;51.064;4.580;2023-04-24T00:13:55;25.80;;;13.80;;
75261;SDS011;63859;51.064;4.580;2023-04-24T00:16:23;28.20;;;14.23;;
75261;SDS011;63859;51.064;4.580;2023-04-24T00:18:48;27.80;;;13.90;;
75261;SDS011;63859;51.064;4.580;2023-04-24T00:21:14;31.87;;;13.53;;
75261;SDS011;63859;51.064;4.580;2023-04-24T00:23:42;22.93;;;13.43;;
75261;SDS011;63859;51.064;4.580;2023-04-24T00:26:08;24.57;;;13.97;;
75261;SDS011;63859;51.064;4.580;2023-04-24T00:28:34;21.43;;;12.10;;
75261;SDS011;63859;51.064;4.580;2023-04-24T00:31:00;23.27;;;13.47;;
75261;SDS011;63859;51.064;4.580;2023-04-24T00:33:26;21.13;;;12.93;;
75261;SDS011;63859;51.064;4.580;2023-04-24T00:35:52;23.93;;;11.17;;
75261;SDS011;63859;51.064;4.580;2023-04-24T00:38:17;24.77;;;14.57;;
75261;SDS011;63859;51.064;4.580;2023-04-24T00:40:43;27.07;;;14.50;;
75261;SDS011;63859;51.064;4.580;2023-04-24T00:43:09;33.73;;;14.97;;
75261;SDS011;63859;51.064;4.580;2023-04-24T00:45:36;27.17;;;14.03;;
75261;SDS011;63859;51.064;4.580;2023-04-24T00:48:01;42.07;;;15.57;;
75261;SDS011;63859;51.064;4.580;2023-04-24T00:50:27;30.53;;;15.07;;
75261;SDS011;63859;51.064;4.580;2023-04-24T00:52:54;30.13;;;15.07;;
75261;SDS011;63859;51.064;4.580;2023-04-24T00:55:20;32.30;;;15.67;;
75261;SDS011;63859;51.064;4.580;2023-04-24T00:57:46;37.77;;;15.77;;
75261;SDS011;63859;51.064;4.580;2023-04-24T01:00:13;29.37;;;15.87;;
75261;SDS011;63859;51.064;4.580;2023-04-24T01:02:40;26.90;;;15.73;;
75261;SDS011;63859;51.064;4.580;2023-04-24T01:05:10;26.83;;;15.23;;
75261;SDS011;63859;51.064;4.580;2023-04-24T01:07:36;34.10;;;16.33;;
75261;SDS011;63859;51.064;4.580;2023-04-24T01:10:02;33.07;;;15.40;;
75261;SDS011;63859;51.064;4.580;2023-04-24T01:12:28;30.10;;;15.17;;
75261;SDS011;63859;51.064;4.580;2023-04-24T01:14:54;24.80;;;14.73;;
75261;SDS011;63859;51.064;4.580;2023-04-24T01:17:21;28.50;;;14.53;;
75261;SDS011;63859;51.064;4.580;2023-04-24T01:19:47;25.37;;;14.50;;
75261;SDS011;63859;51.064;4.580;2023-04-24T01:22:13;28.50;;;15.67;;
75261;SDS011;63859;51.064;4.580;2023-04-24T01:24:39;36.13;;;15.37;;
75261;SDS011;63859;51.064;4.580;2023-04-24T01:27:06;31.43;;;14.87;;
75261;SDS011;63859;51.064;4.580;2023-04-24T01:29:32;24.27;;;14.57;;
75261;SDS011;63859;51.064;4.580;2023-04-24T01:31:58;22.20;;;13.53;;
75261;SDS011;63859;51.064;4.580;2023-04-24T01:34:24;28.70;;;15.07;;
75261;SDS011;63859;51.064;4.580;2023-04-24T01:36:51;30.73;;;15.03;;
75261;SDS011;63859;51.064;4.580;2023-04-24T01:39:16;32.40;;;14.87;;
75261;SDS011;63859;51.064;4.580;2023-04-24T01:41:42;27.17;;;14.10;;
75261;SDS011;63859;51.064;4.580;2023-04-24T01:44:08;28.30;;;13.63;;
75261;SDS011;63859;51.064;4.580;2023-04-24T01:46:33;29.37;;;14.20;;
75261;SDS011;63859;51.064;4.580;2023-04-24T01:49:00;25.93;;;14.20;;
75261;SDS011;63859;51.064;4.580;2023-04-24T01:51:28;31.27;;;14.50;;
75261;SDS011;63859;51.064;4.580;2023-04-24T01:53:53;28.60;;;14.10;;
75261;SDS011;63859;51.064;4.580;2023-04-24T01:56:22;26.20;;;13.60;;
75261;SDS011;63859;51.064;4.580;2023-04-24T01:58:49;20.37;;;12.67;;
75261;SDS011;63859;51.064;4.580;2023-04-24T02:01:19;23.00;;;12.67;;
75261;SDS011;63859;51.064;4.580;2023-04-24T02:03:45;22.97;;;12.90;;
75261;SDS011;63859;51.064;4.580;2023-04-24T02:06:10;27.40;;;14.13;;
75261;SDS011;63859;51.064;4.580;2023-04-24T02:08:36;22.80;;;12.83;;
75261;SDS011;63859;51.064;4.580;2023-04-24T02:11:02;21.70;;;12.60;;
75261;SDS011;63859;51.064;4.580;2023-04-24T02:13:28;26.73;;;13.03;;
75261;SDS011;63859;51.064;4.580;2023-04-24T02:15:53;24.77;;;13.23;;
75261;SDS011;63859;51.064;4.580;2023-04-24T02:18:19;23.13;;;12.57;;
75261;SDS011;63859;51.064;4.580;2023-04-24T02:20:45;25.17;;;13.50;;
75261;SDS011;63859;51.064;4.580;2023-04-24T02:23:11;21.50;;;12.13;;
75261;SDS011;63859;51.064;4.580;2023-04-24T02:25:38;18.37;;;11.57;;
75261;SDS011;63859;51.064;4.580;2023-04-24T02:28:03;19.37;;;11.23;;
75261;SDS011;63859;51.064;4.580;2023-04-24T02:30:29;16.57;;;9.83;;
75261;SDS011;63859;51.064;4.580;2023-04-24T02:32:55;20.70;;;11.73;;
75261;SDS011;63859;51.064;4.580;2023-04-24T02:35:21;17.97;;;10.63;;
75261;SDS011;63859;51.064;4.580;2023-04-24T02:37:47;23.80;;;11.10;;
75261;SDS011;63859;51.064;4.580;2023-04-24T02:40:13;17.40;;;10.13;;
75261;SDS011;63859;51.064;4.580;2023-04-24T02:42:38;18.30;;;10.33;;
75261;SDS011;63859;51.064;4.580;2023-04-24T02:45:04;17.47;;;9.40;;
75261;SDS011;63859;51.064;4.580;2023-04-24T02:47:30;14.90;;;10.50;;
75261;SDS011;63859;51.064;4.580;2023-04-24T02:49:56;16.83;;;11.17;;
75261;SDS011;63859;51.064;4.580;2023-04-24T02:52:21;14.83;;;10.40;;
75261;SDS011;63859;51.064;4.580;2023-04-24T02:54:47;17.07;;;10.63;;
75261;SDS011;63859;51.064;4.580;2023-04-24T02:57:13;17.03;;;10.70;;
75261;SDS011;63859;51.064;4.580;2023-04-24T02:59:38;24.40;;;11.10;;
75261;SDS011;63859;51.064;4.580;2023-04-24T03:02:04;21.27;;;10.73;;
75261;SDS011;63859;51.064;4.580;2023-04-24T03:04:30;19.80;;;10.50;;
75261;SDS011;63859;51.064;4.580;2023-04-24T03:06:57;19.43;;;11.27;;
75261;SDS011;63859;51.064;4.580;2023-04-24T03:09:22;19.77;;;11.70;;
75261;SDS011;63859;51.064;4.580;2023-04-24T03:11:48;18.77;;;11.40;;
75261;SDS011;63859;51.064;4.580;2023-04-24T03:14:14;21.20;;;11.67;;
75261;SDS011;63859;51.064;4.580;2023-04-24T03:16:40;18.50;;;10.77;;
75261;SDS011;63859;51.064;4.580;2023-04-24T03:19:06;16.97;;;12.03;;
75261;SDS011;63859;51.064;4.580;2023-04-24T03:21:32;18.57;;;10.03;;
75261;SDS011;63859;51.064;4.580;2023-04-24T03:23:58;24.10;;;12.27;;
75261;SDS011;63859;51.064;4.580;2023-04-24T03:26:24;22.27;;;11.50;;
75261;SDS011;63859;51.064;4.580;2023-04-24T03:28:49;17.50;;;11.77;;
75261;SDS011;63859;51.064;4.580;2023-04-24T03:31:15;21.77;;;12.47;;
75261;SDS011;63859;51.064;4.580;2023-04-24T03:33:41;20.77;;;10.77;;
75261;SDS011;63859;51.064;4.580;2023-04-24T03:36:07;19.93;;;10.50;;
75261;SDS011;63859;51.064;4.580;2023-04-24T03:38:33;19.63;;;10.70;;
75261;SDS011;63859;51.064;4.580;2023-04-24T03:40:58;24.07;;;10.83;;
75261;SDS011;63859;51.064;4.580;2023-04-24T03:43:24;17.00;;;11.03;;
75261;SDS011;63859;51.064;4.580;2023-04-24T03:45:50;19.40;;;10.93;;
75261;SDS011;63859;51.064;4.580;2023-04-24T03:48:15;15.00;;;10.53;;
75261;SDS011;63859;51.064;4.580;2023-04-24T03:50:41;20.33;;;10.83;;
75261;SDS011;63859;51.064;4.580;2023-04-24T03:53:07;20.97;;;11.63;;
75261;SDS011;63859;51.064;4.580;2023-04-24T03:55:33;16.77;;;10.80;;
75261;SDS011;63859;51.064;4.580;2023-04-24T03:57:58;18.77;;;9.30;;
75261;SDS011;63859;51.064;4.580;2023-04-24T04:00:24;16.80;;;9.80;;
75261;SDS011;63859;51.064;4.580;2023-04-24T04:02:51;14.37;;;9.13;;
75261;SDS011;63859;51.064;4.580;2023-04-24T04:05:16;19.37;;;10.93;;
75261;SDS011;63859;51.064;4.580;2023-04-24T04:07:42;14.80;;;10.03;;
75261;SDS011;63859;51.064;4.580;2023-04-24T04:10:08;15.70;;;9.77;;
75261;SDS011;63859;51.064;4.580;2023-04-24T04:12:33;11.70;;;7.90;;
75261;SDS011;63859;51.064;4.580;2023-04-24T04:14:59;9.73;;;6.50;;
75261;SDS011;63859;51.064;4.580;2023-04-24T04:17:25;11.90;;;6.87;;
75261;SDS011;63859;51.064;4.580;2023-04-24T04:19:50;9.80;;;6.77;;
75261;SDS011;63859;51.064;4.580;2023-04-24T04:22:16;7.53;;;5.93;;
75261;SDS011;63859;51.064;4.580;2023-04-24T04:24:42;9.53;;;6.47;;
75261;SDS011;63859;51.064;4.580;2023-04-24T04:27:08;10.07;;;5.87;;
75261;SDS011;63859;51.064;4.580;2023-04-24T04:29:33;9.37;;;5.67;;
75261;SDS011;63859;51.064;4.580;2023-04-24T04:32:00;7.40;;;5.60;;
75261;SDS011;63859;51.064;4.580;2023-04-24T04:34:27;10.40;;;4.87;;
75261;SDS011;63859;51.064;4.580;2023-04-24T04:36:53;7.67;;;4.03;;
75261;SDS011;63859;51.064;4.580;2023-04-24T04:39:18;11.07;;;4.93;;
75261;SDS011;63859;51.064;4.580;2023-04-24T04:41:44;5.10;;;3.73;;
75261;SDS011;63859;51.064;4.580;2023-04-24T04:44:13;6.80;;;4.57;;
75261;SDS011;63859;51.064;4.580;2023-04-24T04:46:40;8.50;;;4.93;;
75261;SDS011;63859;51.064;4.580;2023-04-24T04:49:06;7.63;;;4.43;;
75261;SDS011;63859;51.064;4.580;2023-04-24T04:51:33;8.57;;;5.60;;
75261;SDS011;63859;51.064;4.580;2023-04-24T04:53:59;8.50;;;3.93;;
75261;SDS011;63859;51.064;4.580;2023-04-24T04:56:25;8.23;;;5.70;;
75261;SDS011;63859;51.064;4.580;2023-04-24T04:58:51;14.03;;;7.93;;
75261;SDS011;63859;51.064;4.580;2023-04-24T05:01:16;12.73;;;8.30;;
75261;SDS011;63859;51.064;4.580;2023-04-24T05:03:42;20.20;;;9.03;;
75261;SDS011;63859;51.064;4.580;2023-04-24T05:06:08;17.37;;;10.43;;
75261;SDS011;63859;51.064;4.580;2023-04-24T05:08:34;17.43;;;9.30;;
75261;SDS011;63859;51.064;4.580;2023-04-24T05:10:59;18.83;;;10.13;;
75261;SDS011;63859;51.064;4.580;2023-04-24T05:13:25;17.90;;;10.63;;
75261;SDS011;63859;51.064;4.580;2023-04-24T05:15:51;15.53;;;10.27;;
75261;SDS011;63859;51.064;4.580;2023-04-24T05:18:17;16.70;;;10.73;;
75261;SDS011;63859;51.064;4.580;2023-04-24T05:20:43;16.53;;;9.23;;
75261;SDS011;63859;51.064;4.580;2023-04-24T05:23:09;16.83;;;9.87;;
75261;SDS011;63859;51.064;4.580;2023-04-24T05:25:35;18.20;;;11.10;;
75261;SDS011;63859;51.064;4.580;2023-04-24T05:28:01;20.93;;;11.00;;
75261;SDS011;63859;51.064;4.580;2023-04-24T05:30:27;19.10;;;11.00;;
75261;SDS011;63859;51.064;4.580;2023-04-24T05:32:53;14.40;;;9.40;;
75261;SDS011;63859;51.064;4.580;2023-04-24T05:35:19;17.00;;;9.20;;
75261;SDS011;63859;51.064;4.580;2023-04-24T05:37:44;18.27;;;9.30;;
75261;SDS011;63859;51.064;4.580;2023-04-24T05:40:10;15.73;;;8.97;;
75261;SDS011;63859;51.064;4.580;2023-04-24T05:42:36;16.90;;;9.00;;
75261;SDS011;63859;51.064;4.580;2023-04-24T05:45:02;15.43;;;8.03;;
75261;SDS011;63859;51.064;4.580;2023-04-24T05:47:28;14.33;;;7.63;;
75261;SDS011;63859;51.064;4.580;2023-04-24T05:49:54;16.13;;;8.73;;
75261;SDS011;63859;51.064;4.580;2023-04-24T05:52:20;16.97;;;8.90;;
75261;SDS011;63859;51.064;4.580;2023-04-24T05:54:45;19.87;;;9.50;;
75261;SDS011;63859;51.064;4.580;2023-04-24T05:57:11;17.60;;;9.40;;
75261;SDS011;63859;51.064;4.580;2023-04-24T05:59:37;20.30;;;9.67;;
75261;SDS011;63859;51.064;4.580;2023-04-24T06:02:06;18.37;;;9.50;;
75261;SDS011;63859;51.064;4.580;2023-04-24T06:04:32;20.63;;;10.97;;
75261;SDS011;63859;51.064;4.580;2023-04-24T06:06:58;24.87;;;10.83;;
75261;SDS011;63859;51.064;4.580;2023-04-24T06:09:25;24.03;;;11.30;;
75261;SDS011;63859;51.064;4.580;2023-04-24T06:11:51;28.30;;;12.33;;
75261;SDS011;63859;51.064;4.580;2023-04-24T06:14:19;28.93;;;14.10;;
75261;SDS011;63859;51.064;4.580;2023-04-24T06:16:46;32.23;;;13.77;;
75261;SDS011;63859;51.064;4.580;2023-04-24T06:19:11;34.23;;;16.37;;
75261;SDS011;63859;51.064;4.580;2023-04-24T06:21:37;29.77;;;14.30;;
75261;SDS011;63859;51.064;4.580;2023-04-24T06:24:03;33.10;;;15.80;;
75261;SDS011;63859;51.064;4.580;2023-04-24T06:26:29;32.90;;;14.47;;
75261;SDS011;63859;51.064;4.580;2023-04-24T06:28:55;38.20;;;16.57;;
75261;SDS011;63859;51.064;4.580;2023-04-24T06:31:21;31.53;;;15.53;;
75261;SDS011;63859;51.064;4.580;2023-04-24T06:33:47;29.30;;;14.20;;
75261;SDS011;63859;51.064;4.580;2023-04-24T06:36:14;30.97;;;16.50;;
75261;SDS011;63859;51.064;4.580;2023-04-24T06:38:40;30.17;;;12.63;;
75261;SDS011;63859;51.064;4.580;2023-04-24T06:41:06;42.47;;;18.13;;
75261;SDS011;63859;51.064;4.580;2023-04-24T06:43:32;40.73;;;17.57;;
75261;SDS011;63859;51.064;4.580;2023-04-24T06:45:58;36.17;;;18.47;;
75261;SDS011;63859;51.064;4.580;2023-04-24T06:48:24;40.00;;;19.40;;
75261;SDS011;63859;51.064;4.580;2023-04-24T06:50:50;33.97;;;17.33;;
75261;SDS011;63859;51.064;4.580;2023-04-24T06:53:16;41.33;;;18.33;;
75261;SDS011;63859;51.064;4.580;2023-04-24T06:55:42;33.40;;;15.67;;
75261;SDS011;63859;51.064;4.580;2023-04-24T06:58:10;39.67;;;17.17;;
75261;SDS011;63859;51.064;4.580;2023-04-24T07:00:36;26.43;;;13.90;;
75261;SDS011;63859;51.064;4.580;2023-04-24T07:03:01;35.90;;;16.83;;
75261;SDS011;63859;51.064;4.580;2023-04-24T07:05:27;30.93;;;16.90;;
75261;SDS011;63859;51.064;4.580;2023-04-24T07:07:54;33.27;;;15.20;;
75261;SDS011;63859;51.064;4.580;2023-04-24T07:10:19;28.63;;;13.57;;
75261;SDS011;63859;51.064;4.580;2023-04-24T07:12:45;23.80;;;13.20;;
75261;SDS011;63859;51.064;4.580;2023-04-24T07:15:12;28.97;;;14.53;;
75261;SDS011;63859;51.064;4.580;2023-04-24T07:17:38;30.37;;;13.40;;
75261;SDS011;63859;51.064;4.580;2023-04-24T07:20:04;39.93;;;14.80;;
75261;SDS011;63859;51.064;4.580;2023-04-24T07:22:30;28.27;;;12.77;;
75261;SDS011;63859;51.064;4.580;2023-04-24T07:24:56;27.57;;;10.67;;
75261;SDS011;63859;51.064;4.580;2023-04-24T07:27:21;21.90;;;10.50;;
75261;SDS011;63859;51.064;4.580;2023-04-24T07:29:47;19.93;;;9.00;;
75261;SDS011;63859;51.064;4.580;2023-04-24T07:32:13;23.77;;;10.03;;
75261;SDS011;63859;51.064;4.580;2023-04-24T07:34:38;25.80;;;8.47;;
75261;SDS011;63859;51.064;4.580;2023-04-24T07:37:04;18.73;;;7.43;;
75261;SDS011;63859;51.064;4.580;2023-04-24T07:39:30;17.90;;;7.87;;
75261;SDS011;63859;51.064;4.580;2023-04-24T07:41:56;17.57;;;6.20;;
75261;SDS011;63859;51.064;4.580;2023-04-24T07:44:24;15.33;;;6.77;;
75261;SDS011;63859;51.064;4.580;2023-04-24T07:46:50;14.90;;;6.07;;
75261;SDS011;63859;51.064;4.580;2023-04-24T07:49:15;14.07;;;6.63;;
75261;SDS011;63859;51.064;4.580;2023-04-24T07:51:41;12.43;;;5.67;;
75261;SDS011;63859;51.064;4.580;2023-04-24T07:54:07;12.83;;;6.07;;
75261;SDS011;63859;51.064;4.580;2023-04-24T07:56:32;15.73;;;6.63;;
75261;SDS011;63859;51.064;4.580;2023-04-24T07:58:58;15.50;;;5.73;;
75261;SDS011;63859;51.064;4.580;2023-04-24T08:01:26;16.10;;;5.30;;
75261;SDS011;63859;51.064;4.580;2023-04-24T08:03:52;13.10;;;5.73;;
75261;SDS011;63859;51.064;4.580;2023-04-24T08:06:17;17.33;;;5.73;;
75261;SDS011;63859;51.064;4.580;2023-04-24T08:08:43;17.23;;;5.87;;
75261;SDS011;63859;51.064;4.580;2023-04-24T08:11:09;14.70;;;5.60;;
75261;SDS011;63859;51.064;4.580;2023-04-24T08:13:34;15.53;;;6.10;;
75261;SDS011;63859;51.064;4.580;2023-04-24T08:16:00;11.43;;;5.00;;
75261;SDS011;63859;51.064;4.580;2023-04-24T08:18:26;16.87;;;6.43;;
75261;SDS011;63859;51.064;4.580;2023-04-24T08:20:51;10.97;;;5.23;;
75261;SDS011;63859;51.064;4.580;2023-04-24T08:23:17;12.30;;;4.80;;
75261;SDS011;63859;51.064;4.580;2023-04-24T08:25:43;20.50;;;7.63;;
75261;SDS011;63859;51.064;4.580;2023-04-24T08:28:09;15.77;;;6.90;;
75261;SDS011;63859;51.064;4.580;2023-04-24T08:30:35;26.30;;;7.60;;
75261;SDS011;63859;51.064;4.580;2023-04-24T08:33:02;20.30;;;7.97;;
75261;SDS011;63859;51.064;4.580;2023-04-24T08:35:28;21.60;;;8.70;;
75261;SDS011;63859;51.064;4.580;2023-04-24T08:37:54;21.90;;;6.70;;
75261;SDS011;63859;51.064;4.580;2023-04-24T08:40:21;23.50;;;8.33;;
75261;SDS011;63859;51.064;4.580;2023-04-24T08:42:51;21.23;;;7.90;;
75261;SDS011;63859;51.064;4.580;2023-04-24T08:45:21;17.97;;;7.03;;
75261;SDS011;63859;51.064;4.580;2023-04-24T08:47:48;15.00;;;5.90;;
75261;SDS011;63859;51.064;4.580;2023-04-24T08:50:14;17.70;;;5.17;;
75261;SDS011;63859;51.064;4.580;2023-04-24T08:52:41;24.83;;;7.37;;
75261;SDS011;63859;51.064;4.580;2023-04-24T08:55:07;26.00;;;8.30;;
75261;SDS011;63859;51.064;4.580;2023-04-24T08:57:34;12.37;;;4.67;;
75261;SDS011;63859;51.064;4.580;2023-04-24T09:00:01;11.93;;;4.17;;
75261;SDS011;63859;51.064;4.580;2023-04-24T09:02:26;20.33;;;4.53;;
75261;SDS011;63859;51.064;4.580;2023-04-24T09:04:53;15.73;;;6.00;;
75261;SDS011;63859;51.064;4.580;2023-04-24T09:07:22;18.07;;;5.70;;
75261;SDS011;63859;51.064;4.580;2023-04-24T09:09:50;19.77;;;7.63;;
75261;SDS011;63859;51.064;4.580;2023-04-24T09:12:17;23.93;;;5.73;;
75261;SDS011;63859;51.064;4.580;2023-04-24T09:14:44;20.70;;;7.07;;
75261;SDS011;63859;51.064;4.580;2023-04-24T09:17:10;17.70;;;6.47;;
75261;SDS011;63859;51.064;4.580;2023-04-24T09:19:36;14.83;;;6.33;;
75261;SDS011;63859;51.064;4.580;2023-04-24T09:22:05;20.77;;;5.63;;
75261;SDS011;63859;51.064;4.580;2023-04-24T09:24:32;22.23;;;6.90;;
75261;SDS011;63859;51.064;4.580;2023-04-24T09:27:00;16.10;;;7.70;;
75261;SDS011;63859;51.064;4.580;2023-04-24T09:29:29;14.53;;;7.37;;
75261;SDS011;63859;51.064;4.580;2023-04-24T09:31:55;27.37;;;10.60;;
75261;SDS011;63859;51.064;4.580;2023-04-24T09:34:24;34.77;;;13.23;;
75261;SDS011;63859;51.064;4.580;2023-04-24T09:36:51;28.83;;;12.00;;
75261;SDS011;63859;51.064;4.580;2023-04-24T09:39:17;21.60;;;10.03;;
75261;SDS011;63859;51.064;4.580;2023-04-24T09:41:53;31.70;;;10.40;;
75261;SDS011;63859;51.064;4.580;2023-04-24T09:44:26;22.33;;;9.43;;
75261;SDS011;63859;51.064;4.580;2023-04-24T09:46:56;21.77;;;9.87;;
75261;SDS011;63859;51.064;4.580;2023-04-24T09:49:24;23.53;;;9.90;;
75261;SDS011;63859;51.064;4.580;2023-04-24T09:51:52;25.37;;;9.33;;
75261;SDS011;63859;51.064;4.580;2023-04-24T09:54:39;20.73;;;8.37;;
75261;SDS011;63859;51.064;4.580;2023-04-24T09:57:05;21.70;;;9.20;;
75261;SDS011;63859;51.064;4.580;2023-04-24T09:59:32;20.50;;;8.70;;
75261;SDS011;63859;51.064;4.580;2023-04-24T10:01:59;20.97;;;7.43;;
75261;SDS011;63859;51.064;4.580;2023-04-24T10:04:25;20.40;;;8.03;;
75261;SDS011;63859;51.064;4.580;2023-04-24T10:06:53;11.50;;;5.03;;
75261;SDS011;63859;51.064;4.580;2023-04-24T10:09:22;21.70;;;5.53;;
75261;SDS011;63859;51.064;4.580;2023-04-24T10:11:50;17.40;;;5.80;;
75261;SDS011;63859;51.064;4.580;2023-04-24T10:14:18;11.77;;;3.70;;
75261;SDS011;63859;51.064;4.580;2023-04-24T10:16:46;10.57;;;3.83;;
75261;SDS011;63859;51.064;4.580;2023-04-24T10:19:13;14.83;;;4.40;;
75261;SDS011;63859;51.064;4.580;2023-04-24T10:21:40;11.23;;;3.77;;
75261;SDS011;63859;51.064;4.580;2023-04-24T10:24:12;7.53;;;2.97;;
75261;SDS011;63859;51.064;4.580;2023-04-24T10:26:38;6.53;;;2.80;;
75261;SDS011;63859;51.064;4.580;2023-04-24T10:29:05;8.60;;;3.10;;
75261;SDS011;63859;51.064;4.580;2023-04-24T10:31:40;8.40;;;2.70;;
75261;SDS011;63859;51.064;4.580;2023-04-24T10:34:06;6.57;;;2.70;;
75261;SDS011;63859;51.064;4.580;2023-04-24T10:36:33;6.03;;;2.43;;
75261;SDS011;63859;51.064;4.580;2023-04-24T10:39:01;6.97;;;2.83;;
75261;SDS011;63859;51.064;4.580;2023-04-24T10:41:31;7.10;;;3.03;;
75261;SDS011;63859;51.064;4.580;2023-04-24T10:44:10;8.53;;;2.80;;
75261;SDS011;63859;51.064;4.580;2023-04-24T10:46:38;10.10;;;2.93;;
75261;SDS011;63859;51.064;4.580;2023-04-24T10:49:07;7.47;;;2.90;;
75261;SDS011;63859;51.064;4.580;2023-04-24T10:59:44;9.47;;;3.97;;
75261;SDS011;63859;51.064;4.580;2023-04-24T11:02:14;14.90;;;5.10;;
75261;SDS011;63859;51.064;4.580;2023-04-24T11:04:40;17.60;;;5.47;;
75261;SDS011;63859;51.064;4.580;2023-04-24T11:07:08;15.33;;;6.03;;
75261;SDS011;63859;51.064;4.580;2023-04-24T11:09:35;12.07;;;5.70;;
75261;SDS011;63859;51.064;4.580;2023-04-24T11:12:08;20.77;;;6.63;;
75261;SDS011;63859;51.064;4.580;2023-04-24T11:17:30;16.43;;;6.90;;
75261;SDS011;63859;51.064;4.580;2023-04-24T11:20:05;24.87;;;8.20;;
75261;SDS011;63859;51.064;4.580;2023-04-24T11:22:35;11.43;;;6.20;;
75261;SDS011;63859;51.064;4.580;2023-04-24T11:25:04;14.40;;;7.80;;
75261;SDS011;63859;51.064;4.580;2023-04-24T11:27:32;15.00;;;6.93;;
75261;SDS011;63859;51.064;4.580;2023-04-24T11:30:05;17.33;;;7.27;;
75261;SDS011;63859;51.064;4.580;2023-04-24T11:32:38;18.10;;;7.40;;
75261;SDS011;63859;51.064;4.580;2023-04-24T11:37:42;13.00;;;6.43;;
75261;SDS011;63859;51.064;4.580;2023-04-24T11:40:11;14.57;;;7.00;;
75261;SDS011;63859;51.064;4.580;2023-04-24T11:42:39;12.10;;;6.93;;
75261;SDS011;63859;51.064;4.580;2023-04-24T11:45:09;17.53;;;7.40;;
75261;SDS011;63859;51.064;4.580;2023-04-24T11:47:40;13.77;;;6.63;;
75261;SDS011;63859;51.064;4.580;2023-04-24T11:50:08;13.00;;;5.73;;
75261;SDS011;63859;51.064;4.580;2023-04-24T11:52:39;10.20;;;4.90;;
75261;SDS011;63859;51.064;4.580;2023-04-24T11:57:45;12.15;;;4.88;;
75261;SDS011;63859;51.064;4.580;2023-04-24T12:00:15;16.97;;;5.40;;
75261;SDS011;63859;51.064;4.580;2023-04-24T12:02:46;11.67;;;4.67;;
75261;SDS011;63859;51.064;4.580;2023-04-24T12:05:27;11.53;;;5.83;;
75261;SDS011;63859;51.064;4.580;2023-04-24T12:07:56;12.87;;;5.93;;
75261;SDS011;63859;51.064;4.580;2023-04-24T12:10:25;15.10;;;5.13;;
75261;SDS011;63859;51.064;4.580;2023-04-24T12:12:52;15.43;;;5.77;;
75261;SDS011;63859;51.064;4.580;2023-04-24T12:15:19;10.50;;;5.27;;
75261;SDS011;63859;51.064;4.580;2023-04-24T12:17:46;11.57;;;5.23;;
75261;SDS011;63859;51.064;4.580;2023-04-24T12:20:12;21.27;;;5.63;;
75261;SDS011;63859;51.064;4.580;2023-04-24T12:22:54;14.43;;;5.23;;
75261;SDS011;63859;51.064;4.580;2023-04-24T12:25:22;13.88;;;6.18;;
75261;SDS011;63859;51.064;4.580;2023-04-24T12:30:31;22.35;;;5.97;;
75261;SDS011;63859;51.064;4.580;2023-04-24T12:32:58;11.48;;;5.32;;
75261;SDS011;63859;51.064;4.580;2023-04-24T12:35:26;13.32;;;4.97;;
75261;SDS011;63859;51.064;4.580;2023-04-24T12:37:53;8.60;;;4.40;;
75261;SDS011;63859;51.064;4.580;2023-04-24T12:40:19;6.85;;;3.88;;
75261;SDS011;63859;51.064;4.580;2023-04-24T12:42:50;9.00;;;3.70;;
75261;SDS011;63859;51.064;4.580;2023-04-24T12:45:17;8.52;;;2.80;;
75261;SDS011;63859;51.064;4.580;2023-04-24T12:47:44;7.85;;;3.38;;
75261;SDS011;63859;51.064;4.580;2023-04-24T12:50:11;8.07;;;3.45;;
75261;SDS011;63859;51.064;4.580;2023-04-24T12:52:38;8.02;;;3.20;;
75261;SDS011;63859;51.064;4.580;2023-04-24T12:55:05;13.82;;;3.63;;
75261;SDS011;63859;51.064;4.580;2023-04-24T12:57:34;8.48;;;3.70;;
75261;SDS011;63859;51.064;4.580;2023-04-24T13:00:01;9.05;;;3.35;;
75261;SDS011;63859;51.064;4.580;2023-04-24T13:02:28;11.07;;;3.78;;
75261;SDS011;63859;51.064;4.580;2023-04-24T13:04:56;7.35;;;3.83;;
75261;SDS011;63859;51.064;4.580;2023-04-24T13:07:22;8.10;;;4.03;;
75261;SDS011;63859;51.064;4.580;2023-04-24T13:09:49;8.45;;;4.68;;
75261;SDS011;63859;51.064;4.580;2023-04-24T13:12:16;8.98;;;3.90;;
75261;SDS011;63859;51.064;4.580;2023-04-24T13:14:42;9.05;;;3.50;;
75261;SDS011;63859;51.064;4.580;2023-04-24T13:17:08;10.88;;;4.00;;
75261;SDS011;63859;51.064;4.580;2023-04-24T13:19:37;8.75;;;3.30;;
75261;SDS011;63859;51.064;4.580;2023-04-24T13:22:04;24.52;;;4.88;;
75261;SDS011;63859;51.064;4.580;2023-04-24T13:24:31;7.30;;;3.00;;
75261;SDS011;63859;51.064;4.580;2023-04-24T13:26:57;9.70;;;3.13;;
75261;SDS011;63859;51.064;4.580;2023-04-24T13:29:23;7.97;;;2.47;;
75261;SDS011;63859;51.064;4.580;2023-04-24T13:31:52;12.15;;;3.22;;
75261;SDS011;63859;51.064;4.580;2023-04-24T13:34:20;7.32;;;2.60;;
75261;SDS011;63859;51.064;4.580;2023-04-24T13:36:50;7.53;;;2.67;;
75261;SDS011;63859;51.064;4.580;2023-04-24T13:39:16;5.95;;;2.40;;
75261;SDS011;63859;51.064;4.580;2023-04-24T13:41:42;4.70;;;2.20;;
75261;SDS011;63859;51.064;4.580;2023-04-24T13:44:08;4.68;;;2.28;;
75261;SDS011;63859;51.064;4.580;2023-04-24T13:46:33;11.73;;;2.90;;
75261;SDS011;63859;51.064;4.580;2023-04-24T13:48:59;13.32;;;3.38;;
75261;SDS011;63859;51.064;4.580;2023-04-24T13:51:26;6.25;;;2.92;;
75261;SDS011;63859;51.064;4.580;2023-04-24T13:53:53;7.45;;;2.80;;
75261;SDS011;63859;51.064;4.580;2023-04-24T13:56:19;6.80;;;2.78;;
75261;SDS011;63859;51.064;4.580;2023-04-24T13:58:45;8.13;;;2.63;;
75261;SDS011;63859;51.064;4.580;2023-04-24T14:01:11;7.60;;;3.00;;
75261;SDS011;63859;51.064;4.580;2023-04-24T14:03:38;4.00;;;2.80;;
75261;SDS011;63859;51.064;4.580;2023-04-24T14:06:03;4.57;;;2.72;;
75261;SDS011;63859;51.064;4.580;2023-04-24T14:08:29;7.15;;;3.25;;
75261;SDS011;63859;51.064;4.580;2023-04-24T14:10:55;7.35;;;2.70;;
75261;SDS011;63859;51.064;4.580;2023-04-24T14:13:21;5.38;;;1.75;;
75261;SDS011;63859;51.064;4.580;2023-04-24T14:15:46;6.68;;;2.08;;
75261;SDS011;63859;51.064;4.580;2023-04-24T14:18:12;2.83;;;1.85;;
75261;SDS011;63859;51.064;4.580;2023-04-24T14:20:38;4.65;;;2.10;;
75261;SDS011;63859;51.064;4.580;2023-04-24T14:23:03;8.70;;;2.42;;
75261;SDS011;63859;51.064;4.580;2023-04-24T14:25:29;2.17;;;1.60;;
75261;SDS011;63859;51.064;4.580;2023-04-24T14:27:55;4.38;;;1.60;;
75261;SDS011;63859;51.064;4.580;2023-04-24T14:30:21;4.35;;;2.00;;
75261;SDS011;63859;51.064;4.580;2023-04-24T14:32:46;3.00;;;1.90;;
75261;SDS011;63859;51.064;4.580;2023-04-24T14:35:13;4.18;;;1.90;;
75261;SDS011;63859;51.064;4.580;2023-04-24T14:37:39;3.22;;;2.20;;
75261;SDS011;63859;51.064;4.580;2023-04-24T14:40:06;3.60;;;1.92;;
75261;SDS011;63859;51.064;4.580;2023-04-24T14:42:33;4.47;;;2.00;;
75261;SDS011;63859;51.064;4.580;2023-04-24T14:44:59;2.97;;;1.80;;
75261;SDS011;63859;51.064;4.580;2023-04-24T14:47:24;2.58;;;1.92;;